Ingalls, Michigan
Current Conditions -  °F | °C
As of 1:15 PM on Thursday 30 Oct 2014 (Local Time) from KMNM Reporting Station
Overcast Overcast  
Wind Chill: 41°   Ceiling: 3200
Heat Index: 45°   Visibility: 10mi
Dew Point: 32°   Wind: 6mph
Humidity: 61%   Direction: 270°W
Pressure: 30.02"   Gusts: NA
Location:  45.38°N, 87.61°W
Report Text: KMNM 301815Z AUTO 27005KT 10SM OVC032 07/00 A3002 RMK AO1
Loading
Personal Weather Stations






























Interactive Weather Map
Tropical Storm Tracking
New forecast layout! Learn more

10-Day Weather Forecast

Advertisements
Track Severe Weather on mobile